sensor_id;sensor_type;location;lat;lon;timestamp;P1;durP1;ratioP1;P2;durP2;ratioP2
7108;SDS011;29079;41.930;25.558;2023-07-24T00:01:21;15.05;;;10.48;;
7108;SDS011;29079;41.930;25.558;2023-07-24T00:04:09;17.23;;;11.30;;
7108;SDS011;29079;41.930;25.558;2023-07-24T00:06:57;15.15;;;11.15;;
7108;SDS011;29079;41.930;25.558;2023-07-24T00:09:46;11.80;;;9.25;;
7108;SDS011;29079;41.930;25.558;2023-07-24T00:12:34;10.80;;;9.60;;
7108;SDS011;29079;41.930;25.558;2023-07-24T00:15:22;15.73;;;10.95;;
7108;SDS011;29079;41.930;25.558;2023-07-24T00:18:10;16.00;;;8.98;;
7108;SDS011;29079;41.930;25.558;2023-07-24T00:20:57;12.55;;;9.75;;
7108;SDS011;29079;41.930;25.558;2023-07-24T00:23:45;13.70;;;10.07;;
7108;SDS011;29079;41.930;25.558;2023-07-24T00:26:35;16.23;;;11.25;;
7108;SDS011;29079;41.930;25.558;2023-07-24T00:29:23;17.27;;;11.13;;
7108;SDS011;29079;41.930;25.558;2023-07-24T00:32:11;15.85;;;11.32;;
7108;SDS011;29079;41.930;25.558;2023-07-24T00:34:58;17.05;;;12.60;;
7108;SDS011;29079;41.930;25.558;2023-07-24T00:37:47;17.17;;;12.35;;
7108;SDS011;29079;41.930;25.558;2023-07-24T00:40:34;15.27;;;12.57;;
7108;SDS011;29079;41.930;25.558;2023-07-24T00:43:24;16.83;;;12.88;;
7108;SDS011;29079;41.930;25.558;2023-07-24T00:46:11;16.75;;;12.50;;
7108;SDS011;29079;41.930;25.558;2023-07-24T00:49:00;25.90;;;14.85;;
7108;SDS011;29079;41.930;25.558;2023-07-24T00:51:49;26.55;;;15.30;;
7108;SDS011;29079;41.930;25.558;2023-07-24T00:54:37;22.55;;;14.57;;
7108;SDS011;29079;41.930;25.558;2023-07-24T00:57:25;27.92;;;16.73;;
7108;SDS011;29079;41.930;25.558;2023-07-24T01:00:15;29.55;;;16.00;;
7108;SDS011;29079;41.930;25.558;2023-07-24T01:03:03;28.08;;;17.92;;
7108;SDS011;29079;41.930;25.558;2023-07-24T01:05:51;28.92;;;19.80;;
7108;SDS011;29079;41.930;25.558;2023-07-24T01:08:41;39.38;;;20.55;;
7108;SDS011;29079;41.930;25.558;2023-07-24T01:11:30;37.08;;;21.88;;
7108;SDS011;29079;41.930;25.558;2023-07-24T01:14:24;30.65;;;19.73;;
7108;SDS011;29079;41.930;25.558;2023-07-24T01:17:24;42.05;;;22.10;;
7108;SDS011;29079;41.930;25.558;2023-07-24T01:20:16;40.30;;;22.38;;
7108;SDS011;29079;41.930;25.558;2023-07-24T01:26:23;37.03;;;22.25;;
7108;SDS011;29079;41.930;25.558;2023-07-24T01:29:12;39.28;;;22.45;;
7108;SDS011;29079;41.930;25.558;2023-07-24T01:32:00;38.80;;;22.80;;
7108;SDS011;29079;41.930;25.558;2023-07-24T01:34:48;38.30;;;22.95;;
7108;SDS011;29079;41.930;25.558;2023-07-24T01:37:36;35.22;;;23.35;;
7108;SDS011;29079;41.930;25.558;2023-07-24T01:40:26;37.05;;;22.75;;
7108;SDS011;29079;41.930;25.558;2023-07-24T01:43:15;41.10;;;23.08;;
7108;SDS011;29079;41.930;25.558;2023-07-24T01:46:03;35.33;;;22.95;;
7108;SDS011;29079;41.930;25.558;2023-07-24T01:48:51;41.88;;;24.63;;
7108;SDS011;29079;41.930;25.558;2023-07-24T01:51:39;40.67;;;24.25;;
7108;SDS011;29079;41.930;25.558;2023-07-24T01:54:27;47.20;;;25.83;;
7108;SDS011;29079;41.930;25.558;2023-07-24T01:57:15;38.65;;;21.60;;
7108;SDS011;29079;41.930;25.558;2023-07-24T02:00:05;50.70;;;26.13;;
7108;SDS011;29079;41.930;25.558;2023-07-24T02:02:53;43.45;;;26.02;;
7108;SDS011;29079;41.930;25.558;2023-07-24T02:05:41;40.90;;;25.42;;
7108;SDS011;29079;41.930;25.558;2023-07-24T02:08:29;39.83;;;27.00;;
7108;SDS011;29079;41.930;25.558;2023-07-24T02:11:17;44.50;;;25.75;;
7108;SDS011;29079;41.930;25.558;2023-07-24T02:14:05;39.03;;;26.80;;
7108;SDS011;29079;41.930;25.558;2023-07-24T02:16:54;42.58;;;25.77;;
7108;SDS011;29079;41.930;25.558;2023-07-24T02:19:42;42.38;;;26.70;;
7108;SDS011;29079;41.930;25.558;2023-07-24T02:22:30;47.47;;;27.85;;
7108;SDS011;29079;41.930;25.558;2023-07-24T02:25:18;55.70;;;29.27;;
7108;SDS011;29079;41.930;25.558;2023-07-24T02:28:06;60.78;;;29.42;;
7108;SDS011;29079;41.930;25.558;2023-07-24T02:30:53;49.80;;;29.15;;
7108;SDS011;29079;41.930;25.558;2023-07-24T02:33:44;56.63;;;30.10;;
7108;SDS011;29079;41.930;25.558;2023-07-24T02:36:32;60.13;;;32.28;;
7108;SDS011;29079;41.930;25.558;2023-07-24T02:39:20;69.00;;;35.67;;
7108;SDS011;29079;41.930;25.558;2023-07-24T02:42:08;58.50;;;33.65;;
7108;SDS011;29079;41.930;25.558;2023-07-24T02:44:56;71.10;;;38.22;;
7108;SDS011;29079;41.930;25.558;2023-07-24T02:47:44;77.93;;;40.03;;
7108;SDS011;29079;41.930;25.558;2023-07-24T02:50:33;83.18;;;42.05;;
7108;SDS011;29079;41.930;25.558;2023-07-24T02:53:21;87.15;;;42.22;;
7108;SDS011;29079;41.930;25.558;2023-07-24T02:56:09;85.32;;;41.50;;
7108;SDS011;29079;41.930;25.558;2023-07-24T02:58:57;94.82;;;44.80;;
7108;SDS011;29079;41.930;25.558;2023-07-24T03:01:45;96.75;;;44.00;;
7108;SDS011;29079;41.930;25.558;2023-07-24T03:04:33;99.65;;;44.22;;
7108;SDS011;29079;41.930;25.558;2023-07-24T03:07:22;82.43;;;40.88;;
7108;SDS011;29079;41.930;25.558;2023-07-24T03:10:10;67.00;;;35.95;;
7108;SDS011;29079;41.930;25.558;2023-07-24T03:12:58;65.05;;;36.28;;
7108;SDS011;29079;41.930;25.558;2023-07-24T03:15:51;66.47;;;35.58;;
7108;SDS011;29079;41.930;25.558;2023-07-24T03:18:39;64.55;;;35.78;;
7108;SDS011;29079;41.930;25.558;2023-07-24T03:21:27;79.57;;;39.13;;
7108;SDS011;29079;41.930;25.558;2023-07-24T03:24:17;79.78;;;40.17;;
7108;SDS011;29079;41.930;25.558;2023-07-24T03:27:05;93.78;;;42.53;;
7108;SDS011;29079;41.930;25.558;2023-07-24T03:29:52;114.30;;;48.88;;
7108;SDS011;29079;41.930;25.558;2023-07-24T03:32:40;132.02;;;50.08;;
7108;SDS011;29079;41.930;25.558;2023-07-24T03:35:28;153.07;;;54.45;;
7108;SDS011;29079;41.930;25.558;2023-07-24T03:38:16;141.40;;;52.25;;
7108;SDS011;29079;41.930;25.558;2023-07-24T03:41:05;150.43;;;51.95;;
7108;SDS011;29079;41.930;25.558;2023-07-24T03:43:53;134.15;;;51.60;;
7108;SDS011;29079;41.930;25.558;2023-07-24T03:46:41;137.55;;;54.53;;
7108;SDS011;29079;41.930;25.558;2023-07-24T03:49:29;136.35;;;52.00;;
7108;SDS011;29079;41.930;25.558;2023-07-24T03:52:17;130.95;;;50.70;;
7108;SDS011;29079;41.930;25.558;2023-07-24T03:55:06;136.65;;;50.80;;
7108;SDS011;29079;41.930;25.558;2023-07-24T03:57:56;130.57;;;50.50;;
7108;SDS011;29079;41.930;25.558;2023-07-24T04:00:44;158.35;;;55.13;;
7108;SDS011;29079;41.930;25.558;2023-07-24T04:03:33;166.43;;;55.42;;
7108;SDS011;29079;41.930;25.558;2023-07-24T04:06:21;153.48;;;54.45;;
7108;SDS011;29079;41.930;25.558;2023-07-24T04:09:09;166.15;;;57.30;;
7108;SDS011;29079;41.930;25.558;2023-07-24T04:12:00;173.40;;;56.13;;
7108;SDS011;29079;41.930;25.558;2023-07-24T04:14:49;172.13;;;56.55;;
7108;SDS011;29079;41.930;25.558;2023-07-24T04:17:37;180.95;;;56.88;;
7108;SDS011;29079;41.930;25.558;2023-07-24T04:20:27;157.25;;;57.67;;
7108;SDS011;29079;41.930;25.558;2023-07-24T04:23:15;176.00;;;57.58;;
7108;SDS011;29079;41.930;25.558;2023-07-24T04:26:02;180.60;;;57.28;;
7108;SDS011;29079;41.930;25.558;2023-07-24T04:28:50;174.02;;;58.92;;
7108;SDS011;29079;41.930;25.558;2023-07-24T04:31:40;167.85;;;54.47;;
7108;SDS011;29079;41.930;25.558;2023-07-24T04:34:28;171.05;;;56.42;;
7108;SDS011;29079;41.930;25.558;2023-07-24T04:37:15;172.13;;;52.88;;
7108;SDS011;29079;41.930;25.558;2023-07-24T04:40:04;168.80;;;56.42;;
7108;SDS011;29079;41.930;25.558;2023-07-24T04:42:52;178.77;;;55.10;;
7108;SDS011;29079;41.930;25.558;2023-07-24T04:45:40;179.20;;;56.92;;
7108;SDS011;29079;41.930;25.558;2023-07-24T04:48:29;179.18;;;57.75;;
7108;SDS011;29079;41.930;25.558;2023-07-24T04:51:17;214.23;;;64.25;;
7108;SDS011;29079;41.930;25.558;2023-07-24T04:54:05;207.85;;;60.67;;
7108;SDS011;29079;41.930;25.558;2023-07-24T04:56:53;224.05;;;61.88;;
7108;SDS011;29079;41.930;25.558;2023-07-24T04:59:41;200.43;;;58.28;;
7108;SDS011;29079;41.930;25.558;2023-07-24T05:02:30;195.95;;;58.55;;
7108;SDS011;29079;41.930;25.558;2023-07-24T05:05:19;210.93;;;63.92;;
7108;SDS011;29079;41.930;25.558;2023-07-24T05:08:07;197.82;;;59.97;;
7108;SDS011;29079;41.930;25.558;2023-07-24T05:10:55;209.90;;;62.97;;
7108;SDS011;29079;41.930;25.558;2023-07-24T05:13:43;193.63;;;62.38;;
7108;SDS011;29079;41.930;25.558;2023-07-24T05:16:31;211.32;;;63.40;;
7108;SDS011;29079;41.930;25.558;2023-07-24T05:19:19;213.15;;;64.22;;
7108;SDS011;29079;41.930;25.558;2023-07-24T05:22:08;197.20;;;62.40;;
7108;SDS011;29079;41.930;25.558;2023-07-24T05:24:56;204.60;;;63.75;;
7108;SDS011;29079;41.930;25.558;2023-07-24T05:27:44;213.25;;;66.45;;
7108;SDS011;29079;41.930;25.558;2023-07-24T05:30:32;196.68;;;63.00;;
7108;SDS011;29079;41.930;25.558;2023-07-24T05:33:20;216.35;;;63.50;;
7108;SDS011;29079;41.930;25.558;2023-07-24T05:36:08;206.38;;;64.43;;
7108;SDS011;29079;41.930;25.558;2023-07-24T05:38:58;226.35;;;67.50;;
7108;SDS011;29079;41.930;25.558;2023-07-24T05:41:46;220.35;;;66.43;;
7108;SDS011;29079;41.930;25.558;2023-07-24T05:44:34;193.57;;;61.70;;
7108;SDS011;29079;41.930;25.558;2023-07-24T05:47:23;213.55;;;64.30;;
7108;SDS011;29079;41.930;25.558;2023-07-24T05:50:11;255.35;;;70.07;;
7108;SDS011;29079;41.930;25.558;2023-07-24T05:53:00;219.68;;;63.40;;
7108;SDS011;29079;41.930;25.558;2023-07-24T05:55:56;206.88;;;62.90;;
7108;SDS011;29079;41.930;25.558;2023-07-24T05:58:46;199.52;;;60.90;;
7108;SDS011;29079;41.930;25.558;2023-07-24T06:01:33;222.13;;;64.72;;
7108;SDS011;29079;41.930;25.558;2023-07-24T06:04:21;191.40;;;59.50;;
7108;SDS011;29079;41.930;25.558;2023-07-24T06:07:10;202.95;;;60.70;;
7108;SDS011;29079;41.930;25.558;2023-07-24T06:09:57;190.95;;;60.38;;
7108;SDS011;29079;41.930;25.558;2023-07-24T06:12:47;202.60;;;59.95;;
7108;SDS011;29079;41.930;25.558;2023-07-24T06:15:34;213.02;;;65.82;;
7108;SDS011;29079;41.930;25.558;2023-07-24T06:18:22;191.05;;;64.07;;
7108;SDS011;29079;41.930;25.558;2023-07-24T06:21:10;191.77;;;62.05;;
7108;SDS011;29079;41.930;25.558;2023-07-24T06:23:58;199.63;;;60.50;;
7108;SDS011;29079;41.930;25.558;2023-07-24T06:26:46;211.73;;;64.10;;
7108;SDS011;29079;41.930;25.558;2023-07-24T06:29:35;189.73;;;61.20;;
7108;SDS011;29079;41.930;25.558;2023-07-24T06:32:25;210.00;;;64.55;;
7108;SDS011;29079;41.930;25.558;2023-07-24T06:35:13;204.75;;;64.63;;
7108;SDS011;29079;41.930;25.558;2023-07-24T06:38:01;189.20;;;59.40;;
7108;SDS011;29079;41.930;25.558;2023-07-24T06:40:49;165.52;;;56.47;;
7108;SDS011;29079;41.930;25.558;2023-07-24T06:43:37;189.60;;;60.70;;
7108;SDS011;29079;41.930;25.558;2023-07-24T06:46:26;201.10;;;63.63;;
7108;SDS011;29079;41.930;25.558;2023-07-24T06:49:14;193.63;;;59.13;;
7108;SDS011;29079;41.930;25.558;2023-07-24T06:52:02;210.88;;;66.07;;
7108;SDS011;29079;41.930;25.558;2023-07-24T06:54:51;194.50;;;63.88;;
7108;SDS011;29079;41.930;25.558;2023-07-24T06:57:38;165.65;;;58.78;;
7108;SDS011;29079;41.930;25.558;2023-07-24T07:00:26;178.95;;;60.03;;
7108;SDS011;29079;41.930;25.558;2023-07-24T07:03:16;186.35;;;61.03;;
7108;SDS011;29079;41.930;25.558;2023-07-24T07:06:04;182.80;;;59.40;;
7108;SDS011;29079;41.930;25.558;2023-07-24T07:08:53;149.60;;;53.80;;
7108;SDS011;29079;41.930;25.558;2023-07-24T07:11:41;142.68;;;49.80;;
7108;SDS011;29079;41.930;25.558;2023-07-24T07:14:29;188.32;;;61.33;;
7108;SDS011;29079;41.930;25.558;2023-07-24T07:17:17;178.40;;;62.35;;
7108;SDS011;29079;41.930;25.558;2023-07-24T07:20:07;187.98;;;62.03;;
7108;SDS011;29079;41.930;25.558;2023-07-24T07:22:55;168.30;;;60.63;;
7108;SDS011;29079;41.930;25.558;2023-07-24T07:25:43;179.43;;;63.92;;
7108;SDS011;29079;41.930;25.558;2023-07-24T07:28:31;160.75;;;57.95;;
7108;SDS011;29079;41.930;25.558;2023-07-24T07:31:19;142.52;;;52.42;;
7108;SDS011;29079;41.930;25.558;2023-07-24T07:34:08;161.05;;;59.05;;
7108;SDS011;29079;41.930;25.558;2023-07-24T07:36:57;159.00;;;59.05;;
7108;SDS011;29079;41.930;25.558;2023-07-24T07:39:45;178.43;;;58.17;;
7108;SDS011;29079;41.930;25.558;2023-07-24T07:42:32;161.98;;;54.78;;
7108;SDS011;29079;41.930;25.558;2023-07-24T07:45:23;146.57;;;52.80;;
7108;SDS011;29079;41.930;25.558;2023-07-24T07:48:11;127.93;;;46.85;;
7108;SDS011;29079;41.930;25.558;2023-07-24T07:50:59;163.93;;;56.30;;
7108;SDS011;29079;41.930;25.558;2023-07-24T07:53:48;159.70;;;52.10;;
7108;SDS011;29079;41.930;25.558;2023-07-24T07:56:36;152.65;;;52.75;;
7108;SDS011;29079;41.930;25.558;2023-07-24T07:59:24;147.27;;;53.22;;
7108;SDS011;29079;41.930;25.558;2023-07-24T08:02:11;157.63;;;55.63;;
7108;SDS011;29079;41.930;25.558;2023-07-24T08:04:59;151.25;;;53.00;;
7108;SDS011;29079;41.930;25.558;2023-07-24T08:07:56;150.95;;;52.50;;
7108;SDS011;29079;41.930;25.558;2023-07-24T08:10:45;154.90;;;51.70;;
7108;SDS011;29079;41.930;25.558;2023-07-24T08:13:33;150.25;;;47.70;;
7108;SDS011;29079;41.930;25.558;2023-07-24T08:16:22;157.45;;;50.08;;
7108;SDS011;29079;41.930;25.558;2023-07-24T08:19:10;155.02;;;48.53;;
7108;SDS011;29079;41.930;25.558;2023-07-24T08:21:57;152.07;;;52.67;;
7108;SDS011;29079;41.930;25.558;2023-07-24T08:24:45;139.73;;;46.65;;
7108;SDS011;29079;41.930;25.558;2023-07-24T08:27:38;127.55;;;43.70;;
7108;SDS011;29079;41.930;25.558;2023-07-24T08:30:46;106.82;;;41.47;;
7108;SDS011;29079;41.930;25.558;2023-07-24T08:33:43;98.90;;;37.22;;
7108;SDS011;29079;41.930;25.558;2023-07-24T08:36:30;99.22;;;34.95;;
7108;SDS011;29079;41.930;25.558;2023-07-24T08:39:18;96.25;;;37.35;;
7108;SDS011;29079;41.930;25.558;2023-07-24T08:42:09;76.07;;;27.73;;
7108;SDS011;29079;41.930;25.558;2023-07-24T08:45:00;61.10;;;26.30;;
7108;SDS011;29079;41.930;25.558;2023-07-24T08:47:48;84.32;;;29.48;;
7108;SDS011;29079;41.930;25.558;2023-07-24T08:50:38;93.65;;;32.13;;
7108;SDS011;29079;41.930;25.558;2023-07-24T08:53:26;68.18;;;26.45;;
7108;SDS011;29079;41.930;25.558;2023-07-24T08:56:15;63.28;;;25.65;;
7108;SDS011;29079;41.930;25.558;2023-07-24T08:59:03;65.07;;;24.10;;
7108;SDS011;29079;41.930;25.558;2023-07-24T09:01:52;51.28;;;22.27;;
7108;SDS011;29079;41.930;25.558;2023-07-24T09:04:40;77.15;;;28.10;;
7108;SDS011;29079;41.930;25.558;2023-07-24T09:07:29;72.65;;;27.55;;
7108;SDS011;29079;41.930;25.558;2023-07-24T09:10:19;61.53;;;26.50;;
7108;SDS011;29079;41.930;25.558;2023-07-24T09:13:11;55.38;;;23.60;;
7108;SDS011;29079;41.930;25.558;2023-07-24T09:15:59;62.95;;;26.85;;
7108;SDS011;29079;41.930;25.558;2023-07-24T09:18:48;64.70;;;26.23;;
7108;SDS011;29079;41.930;25.558;2023-07-24T09:21:55;53.28;;;21.08;;
7108;SDS011;29079;41.930;25.558;2023-07-24T09:24:50;58.33;;;23.63;;
7108;SDS011;29079;41.930;25.558;2023-07-24T09:27:38;41.28;;;17.80;;
7108;SDS011;29079;41.930;25.558;2023-07-24T09:30:26;44.35;;;19.80;;
7108;SDS011;29079;41.930;25.558;2023-07-24T09:33:14;48.50;;;20.77;;
7108;SDS011;29079;41.930;25.558;2023-07-24T09:36:03;36.08;;;15.93;;
7108;SDS011;29079;41.930;25.558;2023-07-24T09:38:59;46.85;;;20.17;;
7108;SDS011;29079;41.930;25.558;2023-07-24T09:41:48;55.55;;;21.77;;
7108;SDS011;29079;41.930;25.558;2023-07-24T09:44:36;52.28;;;20.75;;
7108;SDS011;29079;41.930;25.558;2023-07-24T09:47:24;49.47;;;20.10;;
7108;SDS011;29079;41.930;25.558;2023-07-24T09:50:32;43.85;;;19.67;;
7108;SDS011;29079;41.930;25.558;2023-07-24T09:53:22;42.97;;;18.38;;
7108;SDS011;29079;41.930;25.558;2023-07-24T09:56:18;45.20;;;18.10;;
7108;SDS011;29079;41.930;25.558;2023-07-24T09:59:24;46.90;;;17.05;;
7108;SDS011;29079;41.930;25.558;2023-07-24T10:02:16;44.72;;;17.92;;
7108;SDS011;29079;41.930;25.558;2023-07-24T10:05:05;45.72;;;17.55;;
7108;SDS011;29079;41.930;25.558;2023-07-24T10:07:54;38.13;;;16.42;;
7108;SDS011;29079;41.930;25.558;2023-07-24T10:10:44;33.78;;;13.07;;
7108;SDS011;29079;41.930;25.558;2023-07-24T10:13:32;33.00;;;13.77;;
7108;SDS011;29079;41.930;25.558;2023-07-24T10:16:23;38.25;;;15.85;;
7108;SDS011;29079;41.930;25.558;2023-07-24T10:19:14;32.33;;;13.32;;
7108;SDS011;29079;41.930;25.558;2023-07-24T10:22:03;37.40;;;14.15;;
7108;SDS011;29079;41.930;25.558;2023-07-24T10:24:51;38.88;;;15.32;;
7108;SDS011;29079;41.930;25.558;2023-07-24T10:27:43;24.30;;;11.80;;
7108;SDS011;29079;41.930;25.558;2023-07-24T10:30:33;30.02;;;13.02;;
7108;SDS011;29079;41.930;25.558;2023-07-24T10:33:23;30.80;;;13.30;;
7108;SDS011;29079;41.930;25.558;2023-07-24T10:36:11;28.45;;;13.88;;
7108;SDS011;29079;41.930;25.558;2023-07-24T10:39:00;28.65;;;13.13;;
7108;SDS011;29079;41.930;25.558;2023-07-24T10:41:48;27.23;;;12.77;;
7108;SDS011;29079;41.930;25.558;2023-07-24T10:44:39;28.98;;;12.43;;
7108;SDS011;29079;41.930;25.558;2023-07-24T10:47:26;30.38;;;13.13;;
7108;SDS011;29079;41.930;25.558;2023-07-24T10:50:14;31.88;;;13.10;;
7108;SDS011;29079;41.930;25.558;2023-07-24T10:53:02;24.67;;;11.55;;
7108;SDS011;29079;41.930;25.558;2023-07-24T10:55:51;30.15;;;13.25;;
7108;SDS011;29079;41.930;25.558;2023-07-24T10:58:39;34.85;;;13.68;;
7108;SDS011;29079;41.930;25.558;2023-07-24T11:01:29;29.67;;;13.35;;
7108;SDS011;29079;41.930;25.558;2023-07-24T11:04:19;29.38;;;14.02;;
7108;SDS011;29079;41.930;25.558;2023-07-24T11:07:07;32.50;;;12.68;;
7108;SDS011;29079;41.930;25.558;2023-07-24T11:09:55;27.80;;;13.82;;
7108;SDS011;29079;41.930;25.558;2023-07-24T11:12:43;28.42;;;13.35;;
7108;SDS011;29079;41.930;25.558;2023-07-24T11:15:31;33.08;;;13.35;;
7108;SDS011;29079;41.930;25.558;2023-07-24T11:18:21;23.75;;;12.45;;
7108;SDS011;29079;41.930;25.558;2023-07-24T11:21:29;28.08;;;13.40;;
7108;SDS011;29079;41.930;25.558;2023-07-24T11:24:18;39.63;;;15.25;;
7108;SDS011;29079;41.930;25.558;2023-07-24T11:27:08;26.58;;;12.00;;
7108;SDS011;29079;41.930;25.558;2023-07-24T11:29:57;26.58;;;12.48;;
7108;SDS011;29079;41.930;25.558;2023-07-24T11:32:45;29.80;;;12.68;;
7108;SDS011;29079;41.930;25.558;2023-07-24T11:35:35;28.42;;;13.65;;
7108;SDS011;29079;41.930;25.558;2023-07-24T11:38:25;27.75;;;12.05;;
7108;SDS011;29079;41.930;25.558;2023-07-24T11:41:13;22.40;;;11.10;;
7108;SDS011;29079;41.930;25.558;2023-07-24T11:44:02;26.58;;;12.65;;
7108;SDS011;29079;41.930;25.558;2023-07-24T11:46:50;23.30;;;11.35;;
7108;SDS011;29079;41.930;25.558;2023-07-24T11:49:44;23.48;;;12.45;;
7108;SDS011;29079;41.930;25.558;2023-07-24T11:52:39;28.05;;;12.40;;
7108;SDS011;29079;41.930;25.558;2023-07-24T11:55:30;25.75;;;12.38;;
7108;SDS011;29079;41.930;25.558;2023-07-24T11:58:19;25.98;;;11.73;;
7108;SDS011;29079;41.930;25.558;2023-07-24T12:01:08;21.48;;;11.15;;
7108;SDS011;29079;41.930;25.558;2023-07-24T12:03:56;23.92;;;12.55;;
7108;SDS011;29079;41.930;25.558;2023-07-24T12:06:45;25.20;;;13.48;;
7108;SDS011;29079;41.930;25.558;2023-07-24T12:09:35;24.52;;;12.50;;
7108;SDS011;29079;41.930;25.558;2023-07-24T12:12:24;22.30;;;11.23;;
7108;SDS011;29079;41.930;25.558;2023-07-24T12:15:12;20.58;;;11.93;;
7108;SDS011;29079;41.930;25.558;2023-07-24T12:18:00;26.48;;;13.57;;
7108;SDS011;29079;41.930;25.558;2023-07-24T12:20:50;26.48;;;12.82;;
7108;SDS011;29079;41.930;25.558;2023-07-24T12:23:38;22.33;;;13.55;;
7108;SDS011;29079;41.930;25.558;2023-07-24T12:26:28;22.63;;;12.80;;
7108;SDS011;29079;41.930;25.558;2023-07-24T12:29:15;23.90;;;12.90;;
7108;SDS011;29079;41.930;25.558;2023-07-24T12:32:04;21.45;;;13.05;;
7108;SDS011;29079;41.930;25.558;2023-07-24T12:34:53;25.20;;;13.25;;
7108;SDS011;29079;41.930;25.558;2023-07-24T12:37:41;20.42;;;12.88;;
7108;SDS011;29079;41.930;25.558;2023-07-24T12:40:29;24.70;;;12.85;;
7108;SDS011;29079;41.930;25.558;2023-07-24T12:43:18;21.10;;;12.38;;
7108;SDS011;29079;41.930;25.558;2023-07-24T12:46:06;23.58;;;13.15;;
7108;SDS011;29079;41.930;25.558;2023-07-24T12:48:54;21.10;;;13.57;;
7108;SDS011;29079;41.930;25.558;2023-07-24T12:51:42;24.63;;;14.52;;
7108;SDS011;29079;41.930;25.558;2023-07-24T12:54:30;23.30;;;13.90;;
7108;SDS011;29079;41.930;25.558;2023-07-24T12:57:38;24.45;;;12.82;;
7108;SDS011;29079;41.930;25.558;2023-07-24T13:00:27;16.77;;;11.32;;
7108;SDS011;29079;41.930;25.558;2023-07-24T13:03:16;19.70;;;12.70;;
7108;SDS011;29079;41.930;25.558;2023-07-24T13:06:04;19.77;;;12.35;;
7108;SDS011;29079;41.930;25.558;2023-07-24T13:08:52;24.33;;;12.55;;
7108;SDS011;29079;41.930;25.558;2023-07-24T13:11:40;21.40;;;13.18;;
7108;SDS011;29079;41.930;25.558;2023-07-24T13:14:28;19.73;;;11.63;;
7108;SDS011;29079;41.930;25.558;2023-07-24T13:17:17;24.55;;;12.60;;
7108;SDS011;29079;41.930;25.558;2023-07-24T13:20:05;20.33;;;13.20;;
7108;SDS011;29079;41.930;25.558;2023-07-24T13:22:54;25.45;;;13.05;;
7108;SDS011;29079;41.930;25.558;2023-07-24T13:25:42;22.70;;;13.98;;
7108;SDS011;29079;41.930;25.558;2023-07-24T13:28:30;21.75;;;12.52;;
7108;SDS011;29079;41.930;25.558;2023-07-24T13:31:18;18.20;;;11.32;;
7108;SDS011;29079;41.930;25.558;2023-07-24T13:34:09;17.77;;;11.55;;
7108;SDS011;29079;41.930;25.558;2023-07-24T13:36:57;22.08;;;13.00;;
7108;SDS011;29079;41.930;25.558;2023-07-24T13:39:45;18.45;;;12.30;;
7108;SDS011;29079;41.930;25.558;2023-07-24T13:42:33;15.85;;;10.98;;
7108;SDS011;29079;41.930;25.558;2023-07-24T13:45:20;16.92;;;11.52;;
7108;SDS011;29079;41.930;25.558;2023-07-24T13:48:08;15.93;;;11.25;;
7108;SDS011;29079;41.930;25.558;2023-07-24T13:50:58;16.50;;;11.18;;
7108;SDS011;29079;41.930;25.558;2023-07-24T13:53:49;16.38;;;11.25;;
7108;SDS011;29079;41.930;25.558;2023-07-24T13:56:38;15.30;;;11.85;;
7108;SDS011;29079;41.930;25.558;2023-07-24T13:59:26;16.13;;;10.93;;
7108;SDS011;29079;41.930;25.558;2023-07-24T14:02:14;16.83;;;11.80;;
7108;SDS011;29079;41.930;25.558;2023-07-24T14:05:02;18.67;;;11.80;;
7108;SDS011;29079;41.930;25.558;2023-07-24T14:07:51;14.43;;;10.75;;
7108;SDS011;29079;41.930;25.558;2023-07-24T14:10:39;15.00;;;10.40;;
7108;SDS011;29079;41.930;25.558;2023-07-24T14:13:27;14.95;;;10.23;;
7108;SDS011;29079;41.930;25.558;2023-07-24T14:16:15;14.85;;;10.07;;
7108;SDS011;29079;41.930;25.558;2023-07-24T14:19:03;16.27;;;10.20;;
7108;SDS011;29079;41.930;25.558;2023-07-24T14:21:52;12.90;;;9.63;;
7108;SDS011;29079;41.930;25.558;2023-07-24T14:24:41;17.63;;;10.05;;
7108;SDS011;29079;41.930;25.558;2023-07-24T14:27:29;14.75;;;10.52;;
7108;SDS011;29079;41.930;25.558;2023-07-24T14:30:17;14.68;;;10.32;;
7108;SDS011;29079;41.930;25.558;2023-07-24T14:33:05;14.77;;;9.93;;
7108;SDS011;29079;41.930;25.558;2023-07-24T14:35:53;16.40;;;9.68;;
7108;SDS011;29079;41.930;25.558;2023-07-24T14:38:42;16.70;;;10.48;;
7108;SDS011;29079;41.930;25.558;2023-07-24T14:41:31;14.32;;;10.63;;
7108;SDS011;29079;41.930;25.558;2023-07-24T14:44:19;12.85;;;9.70;;
7108;SDS011;29079;41.930;25.558;2023-07-24T14:47:07;17.17;;;10.52;;
7108;SDS011;29079;41.930;25.558;2023-07-24T14:49:56;14.77;;;10.98;;
7108;SDS011;29079;41.930;25.558;2023-07-24T14:52:45;15.43;;;11.20;;
7108;SDS011;29079;41.930;25.558;2023-07-24T14:55:33;14.73;;;10.07;;
7108;SDS011;29079;41.930;25.558;2023-07-24T14:58:22;14.23;;;10.30;;
7108;SDS011;29079;41.930;25.558;2023-07-24T15:01:10;13.65;;;10.38;;
7108;SDS011;29079;41.930;25.558;2023-07-24T15:03:58;13.85;;;9.15;;
7108;SDS011;29079;41.930;25.558;2023-07-24T15:06:46;14.32;;;10.02;;
7108;SDS011;29079;41.930;25.558;2023-07-24T15:09:34;16.50;;;10.65;;
7108;SDS011;29079;41.930;25.558;2023-07-24T15:12:21;16.80;;;11.02;;
7108;SDS011;29079;41.930;25.558;2023-07-24T15:15:10;16.55;;;9.60;;
7108;SDS011;29079;41.930;25.558;2023-07-24T15:17:59;13.23;;;9.52;;
7108;SDS011;29079;41.930;25.558;2023-07-24T15:20:47;13.10;;;9.88;;
7108;SDS011;29079;41.930;25.558;2023-07-24T15:23:35;12.18;;;8.63;;
7108;SDS011;29079;41.930;25.558;2023-07-24T15:26:23;16.38;;;10.13;;
7108;SDS011;29079;41.930;25.558;2023-07-24T15:29:11;14.73;;;9.98;;
7108;SDS011;29079;41.930;25.558;2023-07-24T15:32:06;12.85;;;10.27;;
7108;SDS011;29079;41.930;25.558;2023-07-24T15:34:54;15.23;;;11.02;;
7108;SDS011;29079;41.930;25.558;2023-07-24T15:37:42;13.00;;;9.43;;
7108;SDS011;29079;41.930;25.558;2023-07-24T15:40:30;14.50;;;9.38;;
7108;SDS011;29079;41.930;25.558;2023-07-24T15:43:19;13.57;;;9.77;;
7108;SDS011;29079;41.930;25.558;2023-07-24T15:46:10;16.08;;;9.85;;
7108;SDS011;29079;41.930;25.558;2023-07-24T15:49:04;12.95;;;9.20;;
7108;SDS011;29079;41.930;25.558;2023-07-24T15:51:51;16.00;;;10.23;;
7108;SDS011;29079;41.930;25.558;2023-07-24T15:54:39;12.10;;;10.30;;
7108;SDS011;29079;41.930;25.558;2023-07-24T15:57:27;12.40;;;9.45;;
7108;SDS011;29079;41.930;25.558;2023-07-24T16:00:15;12.32;;;9.27;;
7108;SDS011;29079;41.930;25.558;2023-07-24T16:03:03;15.82;;;9.95;;
7108;SDS011;29079;41.930;25.558;2023-07-24T16:05:53;18.02;;;10.80;;
7108;SDS011;29079;41.930;25.558;2023-07-24T16:08:41;14.35;;;10.05;;
7108;SDS011;29079;41.930;25.558;2023-07-24T16:11:29;15.88;;;10.90;;
7108;SDS011;29079;41.930;25.558;2023-07-24T16:14:19;14.93;;;9.73;;
7108;SDS011;29079;41.930;25.558;2023-07-24T16:17:07;14.65;;;11.00;;
7108;SDS011;29079;41.930;25.558;2023-07-24T16:19:55;14.05;;;10.07;;
7108;SDS011;29079;41.930;25.558;2023-07-24T16:22:44;14.48;;;10.35;;
7108;SDS011;29079;41.930;25.558;2023-07-24T16:25:32;12.63;;;9.25;;
7108;SDS011;29079;41.930;25.558;2023-07-24T16:28:20;13.30;;;9.82;;